Time;durP1;ratioP1;P1;durP2;ratioP2;P2;SDS_P1;SDS_P2;PMS_P1;PMS_P2;Temp;Humidity;BMP_temperature;BMP_pressure;BME280_temperature;BME280_humidity;BME280_pressure;Samples;Min_cycle;Max_cycle;Signal;HPM_P1;HPM_P2
2021/08/05 00:02:01;;;;;;;;;;;;;;;23.58;60.46;99150.69;5257379;27;19989;-90
2021/08/05 00:04:26;;;;;;;;;;;;;;;23.66;60.46;99142.84;5257436;27;19971;-91
2021/08/05 00:06:51;;;;;;;;;;;;;;;23.72;60.46;99144.91;5239463;27;19999;-90
2021/08/05 00:09:17;;;;;;;;;;;;;;;23.61;60.45;99134.47;5257514;27;19975;-90
2021/08/05 00:11:42;;;;;;;;;;;;;;;23.65;60.45;99135.84;5257754;27;20361;-91
2021/08/05 00:14:07;;;;;;;;;;;;;;;23.66;60.45;99128.69;5257465;27;19991;-91
2021/08/05 00:16:32;;;;;;;;;;;;;;;23.69;60.46;99126.63;5239261;27;20000;-91
2021/08/05 00:18:58;;;;;;;;;;;;;;;23.66;60.46;99118.94;5257253;27;19969;-91
2021/08/05 00:21:23;;;;;;;;;;;;;;;23.52;60.45;99109.59;5239633;27;20337;-91
2021/08/05 00:23:48;;;;;;;;;;;;;;;23.71;60.45;99095.41;5239091;27;19979;-91
2021/08/05 00:26:13;;;;;;;;;;;;;;;23.77;60.46;99102.78;5256856;27;19987;-91
2021/08/05 00:28:42;;;;;;;;;;;;;;;23.77;60.47;99091.31;5257576;27;19975;-91
2021/08/05 00:31:07;;;;;;;;;;;;;;;23.76;60.47;99081.66;5239205;27;19975;-91
2021/08/05 00:33:32;;;;;;;;;;;;;;;23.74;60.46;99075.69;5257480;27;19996;-91
2021/08/05 00:35:58;;;;;;;;;;;;;;;23.70;60.46;99069.00;5239279;27;19972;-91
2021/08/05 00:38:23;;;;;;;;;;;;;;;23.81;60.47;99063.44;5257500;27;20008;-90
2021/08/05 00:40:48;;;;;;;;;;;;;;;23.88;60.47;99061.84;5257196;27;20302;-90
2021/08/05 00:43:14;;;;;;;;;;;;;;;23.89;60.47;99055.56;5276617;27;19987;-89
2021/08/05 00:45:39;;;;;;;;;;;;;;;23.88;60.46;99056.53;5256506;27;22326;-89
2021/08/05 00:48:05;;;;;;;;;;;;;;;23.83;60.47;99054.34;5256649;27;19990;-89
2021/08/05 00:50:30;;;;;;;;;;;;;;;23.88;60.46;99056.53;5257102;27;19968;-90
2021/08/05 00:52:55;;;;;;;;;;;;;;;23.87;60.47;99060.19;5256950;27;20282;-89
2021/08/05 00:55:21;;;;;;;;;;;;;;;23.99;60.48;99052.84;5256374;27;19972;-90
2021/08/05 00:57:46;;;;;;;;;;;;;;;23.88;60.46;99052.06;5256887;27;20318;-89
2021/08/05 01:00:12;;;;;;;;;;;;;;;23.92;60.47;99049.97;5239171;27;20027;-90
2021/08/05 01:02:38;;;;;;;;;;;;;;;23.94;60.47;99045.31;5240148;27;20007;-90
2021/08/05 01:05:03;;;;;;;;;;;;;;;23.96;60.47;99034.53;5240111;27;19990;-90
2021/08/05 01:07:29;;;;;;;;;;;;;;;24.01;60.47;99032.25;5258024;27;20314;-90
2021/08/05 01:10:04;;;;;;;;;;;;;;;24.04;60.47;99016.84;5240147;27;19991;-90
2021/08/05 01:12:39;;;;;;;;;;;;;;;24.07;60.48;99015.69;5278160;27;20069;-90
2021/08/05 01:15:09;;;;;;;;;;;;;;;24.10;60.48;99007.41;5259515;27;19941;-90
2021/08/05 01:17:35;;;;;;;;;;;;;;;24.05;60.47;99004.38;5257872;27;19980;-89
2021/08/05 01:20:00;;;;;;;;;;;;;;;24.09;60.47;98998.59;5257799;27;19983;-90
2021/08/05 01:22:45;;;;;;;;;;;;;;;24.12;60.48;98994.78;5257812;27;19961;-90
2021/08/05 01:25:12;;;;;;;;;;;;;;;24.18;60.48;98991.53;5240125;27;19987;-91
2021/08/05 01:27:38;;;;;;;;;;;;;;;24.21;60.48;98985.06;5240119;27;19976;-90
2021/08/05 01:30:03;;;;;;;;;;;;;;;24.21;60.48;98982.41;5240021;27;20016;-90
2021/08/05 01:32:29;;;;;;;;;;;;;;;24.23;60.48;98981.25;5257872;27;19972;-91
2021/08/05 01:34:54;;;;;;;;;;;;;;;24.19;60.48;98977.25;5277870;27;20301;-90
2021/08/05 01:37:19;;;;;;;;;;;;;;;24.25;60.49;98981.94;5277508;27;19979;-91
2021/08/05 01:39:45;;;;;;;;;;;;;;;24.24;60.48;98979.44;5244990;27;26368;-91
2021/08/05 01:42:10;;;;;;;;;;;;;;;24.23;60.49;98969.78;5270723;27;19987;-91
2021/08/05 01:44:35;;;;;;;;;;;;;;;24.25;60.49;98968.66;5269984;27;19964;-90
2021/08/05 01:47:00;;;;;;;;;;;;;;;24.28;60.49;98964.84;5260991;27;19984;-90
2021/08/05 01:49:26;;;;;;;;;;;;;;;24.27;60.49;98968.50;5260028;27;20258;-90
2021/08/05 01:51:51;;;;;;;;;;;;;;;24.19;60.48;98966.63;5239386;27;25995;-90
2021/08/05 01:54:16;;;;;;;;;;;;;;;24.16;60.48;98964.28;5239586;27;19968;-90
2021/08/05 01:56:41;;;;;;;;;;;;;;;24.34;60.49;98956.25;5257924;27;19960;-90
2021/08/05 01:59:07;;;;;;;;;;;;;;;24.39;60.50;98954.00;5277369;27;20257;-90
2021/08/05 02:01:32;;;;;;;;;;;;;;;24.37;60.50;98951.50;5257869;27;19968;-90
2021/08/05 02:04:00;;;;;;;;;;;;;;;24.22;60.49;98958.31;5276773;27;19964;-90
2021/08/05 02:06:25;;;;;;;;;;;;;;;24.32;60.49;98956.41;5257570;27;20685;-90
2021/08/05 02:09:01;;;;;;;;;;;;;;;24.27;60.49;98955.19;5257658;27;19961;-90
2021/08/05 02:11:27;;;;;;;;;;;;;;;24.33;60.49;98949.28;5257787;27;19968;-90
2021/08/05 02:13:52;;;;;;;;;;;;;;;24.32;60.49;98942.28;5257531;27;20253;-90
2021/08/05 02:16:17;;;;;;;;;;;;;;;24.39;60.50;98943.34;5277312;27;20263;-89
2021/08/05 02:18:46;;;;;;;;;;;;;;;24.36;60.49;98944.47;5257740;27;20004;-89
2021/08/05 02:21:12;;;;;;;;;;;;;;;24.47;60.51;98940.75;5258108;27;20032;-89
2021/08/05 02:23:38;;;;;;;;;;;;;;;24.42;60.49;98938.56;5239542;27;19979;-89
2021/08/05 02:26:03;;;;;;;;;;;;;;;24.33;60.49;98933.31;5257489;27;20008;-88
2021/08/05 02:28:28;;;;;;;;;;;;;;;24.49;60.50;98933.44;5256688;27;23886;-89
2021/08/05 02:30:54;;;;;;;;;;;;;;;24.41;60.49;98920.91;5256731;27;27018;-88
2021/08/05 02:33:19;;;;;;;;;;;;;;;24.43;60.49;98908.28;5257426;27;20250;-88
2021/08/05 02:35:44;;;;;;;;;;;;;;;24.41;60.49;98904.13;5257464;27;20028;-89
2021/08/05 02:38:10;;;;;;;;;;;;;;;24.35;60.49;98900.25;5277038;27;20733;-90
2021/08/05 02:40:35;;;;;;;;;;;;;;;24.26;60.49;98903.00;5257575;27;19966;-88
2021/08/05 02:43:04;;;;;;;;;;;;;;;24.31;60.49;98896.25;5257434;27;19969;-88
2021/08/05 02:45:30;;;;;;;;;;;;;;;24.34;60.49;98887.94;5257581;27;20032;-90
2021/08/05 02:47:55;;;;;;;;;;;;;;;24.30;60.49;98885.75;5257575;27;19964;-90
2021/08/05 02:50:20;;;;;;;;;;;;;;;24.27;60.49;98880.72;5257739;27;20235;-90
2021/08/05 02:52:45;;;;;;;;;;;;;;;24.31;60.49;98874.13;5239275;27;20065;-89
2021/08/05 02:55:11;;;;;;;;;;;;;;;24.21;60.50;98881.37;5239146;27;20015;-90
2021/08/05 02:57:36;;;;;;;;;;;;;;;24.26;60.49;98879.06;5257531;27;19975;-89
2021/08/05 03:00:01;;;;;;;;;;;;;;;24.28;60.49;98869.09;5239034;27;20022;-90
2021/08/05 03:02:26;;;;;;;;;;;;;;;24.22;60.50;98856.44;5276706;27;19988;-89
2021/08/05 03:04:51;;;;;;;;;;;;;;;24.16;60.49;98860.56;5239459;27;20617;-89
2021/08/05 03:07:17;;;;;;;;;;;;;;;24.13;60.48;98859.06;5257386;27;20004;-91
2021/08/05 03:09:42;;;;;;;;;;;;;;;24.25;60.49;98850.81;5257929;27;19969;-91
2021/08/05 03:12:07;;;;;;;;;;;;;;;24.31;60.50;98844.88;5239795;27;19965;-89
2021/08/05 03:14:32;;;;;;;;;;;;;;;24.20;60.48;98840.63;5277097;27;20011;-91
2021/08/05 03:16:58;;;;;;;;;;;;;;;24.30;60.49;98833.41;5257499;27;20258;-91
2021/08/05 03:19:23;;;;;;;;;;;;;;;24.16;60.48;98840.13;5257740;27;19991;-91
2021/08/05 03:21:49;;;;;;;;;;;;;;;24.23;60.49;98831.50;5257066;27;20559;-91
2021/08/05 03:24:14;;;;;;;;;;;;;;;24.23;60.49;98835.00;5257146;27;19999;-90
2021/08/05 03:26:39;;;;;;;;;;;;;;;24.21;60.48;98836.16;5239411;27;19995;-89
2021/08/05 03:29:04;;;;;;;;;;;;;;;24.22;60.49;98837.81;5256787;27;23418;-89
2021/08/05 03:31:29;;;;;;;;;;;;;;;24.20;60.50;98840.63;5239026;27;22125;-90
2021/08/05 03:33:55;;;;;;;;;;;;;;;24.13;60.49;98837.78;5257212;27;20298;-90
2021/08/05 03:36:20;;;;;;;;;;;;;;;24.15;60.48;98835.81;5238897;27;26281;-90
2021/08/05 03:38:45;;;;;;;;;;;;;;;24.10;60.48;98823.94;5238950;27;22552;-89
2021/08/05 03:41:10;;;;;;;;;;;;;;;24.17;60.49;98841.78;5257393;27;19976;-90
2021/08/05 03:43:36;;;;;;;;;;;;;;;24.27;60.49;98828.38;5239317;27;20000;-89
2021/08/05 03:46:01;;;;;;;;;;;;;;;24.11;60.48;98829.09;5257042;27;19964;-88
2021/08/05 03:48:26;;;;;;;;;;;;;;;24.19;60.48;98839.81;5239384;27;20008;-90
2021/08/05 03:50:51;;;;;;;;;;;;;;;24.10;60.48;98830.09;5238925;27;25337;-91
2021/08/05 03:53:17;;;;;;;;;;;;;;;24.10;60.47;98831.91;5239520;27;20289;-90
2021/08/05 03:55:42;;;;;;;;;;;;;;;24.19;60.49;98837.16;5239266;27;20012;-89
2021/08/05 03:58:09;;;;;;;;;;;;;;;24.31;60.49;98840.38;5257253;27;19967;-88
2021/08/05 04:00:34;;;;;;;;;;;;;;;24.31;60.49;98861.66;5256740;27;19985;-88
2021/08/05 04:03:00;;;;;;;;;;;;;;;24.30;60.49;98865.31;5256984;27;19984;-89
2021/08/05 04:05:25;;;;;;;;;;;;;;;24.31;60.49;98861.66;5275740;27;26607;-89
2021/08/05 04:07:50;;;;;;;;;;;;;;;24.26;60.49;98855.13;5276880;27;19992;-89
2021/08/05 04:10:15;;;;;;;;;;;;;;;24.27;60.49;98848.81;5257208;27;19985;-90
2021/08/05 04:12:41;;;;;;;;;;;;;;;24.32;60.49;98846.53;5239033;27;19987;-91
2021/08/05 04:15:06;;;;;;;;;;;;;;;24.26;60.49;98847.16;5239972;27;19981;-91
2021/08/05 04:17:31;;;;;;;;;;;;;;;24.32;60.49;98843.88;5257677;27;19972;-91
2021/08/05 04:19:57;;;;;;;;;;;;;;;24.38;60.50;98840.59;5257106;27;19971;-88
2021/08/05 04:22:22;;;;;;;;;;;;;;;24.36;60.49;98829.25;5276805;27;19985;-91
2021/08/05 04:24:47;;;;;;;;;;;;;;;24.37;60.50;98813.19;5275870;27;24136;-90
2021/08/05 04:27:12;;;;;;;;;;;;;;;24.33;60.49;98811.81;5239382;27;20341;-91
2021/08/05 04:29:38;;;;;;;;;;;;;;;24.34;60.50;98796.69;5257487;27;19968;-90
2021/08/05 04:32:03;;;;;;;;;;;;;;;24.18;60.48;98803.56;5257136;27;20008;-91
2021/08/05 04:34:28;;;;;;;;;;;;;;;24.30;60.49;98808.62;5240860;27;19995;-92
2021/08/05 04:36:53;;;;;;;;;;;;;;;24.31;60.50;98797.84;5258590;27;20251;-90
2021/08/05 04:39:20;;;;;;;;;;;;;;;24.22;60.49;98788.13;5258393;27;20226;-92
2021/08/05 04:41:45;;;;;;;;;;;;;;;24.22;60.49;98781.97;5240614;27;19980;-90
2021/08/05 04:44:11;;;;;;;;;;;;;;;24.08;60.48;98784.22;5258600;27;19988;-91
2021/08/05 04:46:36;;;;;;;;;;;;;;;24.01;60.48;98785.03;5241005;27;20020;-92
2021/08/05 04:49:02;;;;;;;;;;;;;;;23.95;60.48;98786.50;5278988;27;19981;-92
2021/08/05 04:51:28;;;;;;;;;;;;;;;23.91;60.47;98779.84;5259486;27;19964;-92
2021/08/05 04:53:54;;;;;;;;;;;;;;;23.94;60.47;98779.50;5259455;27;19969;-91
2021/08/05 04:56:20;;;;;;;;;;;;;;;24.01;60.48;98774.41;5247672;27;20730;-91
2021/08/05 04:58:45;;;;;;;;;;;;;;;24.03;60.47;98762.59;5254635;27;25377;-92
2021/08/05 05:01:10;;;;;;;;;;;;;;;24.06;60.48;98758.78;5293762;27;19992;-91
2021/08/05 05:03:36;;;;;;;;;;;;;;;24.15;60.48;98748.06;5245155;27;20306;-92
2021/08/05 05:06:02;;;;;;;;;;;;;;;24.23;60.49;98746.41;5245499;27;197968;-91
2021/08/05 05:08:27;;;;;;;;;;;;;;;24.34;60.49;98736.34;5250018;27;19960;-91
2021/08/05 05:10:56;;;;;;;;;;;;;;;24.28;60.49;98741.44;5240413;27;20274;-92
2021/08/05 05:13:21;;;;;;;;;;;;;;;24.22;60.49;98734.13;5258168;27;19988;-90
2021/08/05 05:15:47;;;;;;;;;;;;;;;24.16;60.48;98738.25;5258434;27;20250;-92
2021/08/05 05:18:12;;;;;;;;;;;;;;;24.24;60.48;98738.28;5258643;27;19965;-92
2021/08/05 05:20:38;;;;;;;;;;;;;;;24.06;60.48;98751.66;5240924;27;20034;-92
2021/08/05 05:23:03;;;;;;;;;;;;;;;24.14;60.49;98751.72;5240121;27;19996;-91
2021/08/05 05:25:28;;;;;;;;;;;;;;;24.22;60.49;98739.44;5258348;27;19965;-91
2021/08/05 05:27:54;;;;;;;;;;;;;;;24.26;60.49;98724.81;5240725;27;19985;-92
2021/08/05 05:30:19;;;;;;;;;;;;;;;24.15;60.49;98728.59;5240435;27;19969;-91
2021/08/05 05:32:46;;;;;;;;;;;;;;;24.24;60.49;98732.97;5240979;27;19980;-91
2021/08/05 05:35:12;;;;;;;;;;;;;;;24.26;60.49;98720.31;5241452;27;20586;-91
2021/08/05 05:37:37;;;;;;;;;;;;;;;24.14;60.49;98692.38;5240772;27;20302;-91
2021/08/05 05:40:02;;;;;;;;;;;;;;;24.10;60.48;98665.25;5240513;27;19984;-90
2021/08/05 05:42:28;;;;;;;;;;;;;;;23.91;60.47;98654.91;5240476;27;19961;-90
2021/08/05 05:44:53;;;;;;;;;;;;;;;23.88;60.47;98650.72;5240323;27;25098;-91
2021/08/05 05:47:18;;;;;;;;;;;;;;;23.89;60.46;98638.25;5239586;27;20287;-91
2021/08/05 05:49:43;;;;;;;;;;;;;;;23.80;60.46;98639.25;5240555;27;20018;-90
2021/08/05 05:52:09;;;;;;;;;;;;;;;23.87;60.47;98648.22;5240576;27;20366;-91
2021/08/05 05:54:34;;;;;;;;;;;;;;;23.88;60.47;98657.88;5258254;27;20011;-90
2021/08/05 05:56:59;;;;;;;;;;;;;;;23.84;60.46;98672.47;5240440;27;19984;-90
2021/08/05 05:59:25;;;;;;;;;;;;;;;23.86;60.47;98675.78;5258104;27;19979;-90
2021/08/05 06:01:50;;;;;;;;;;;;;;;23.95;60.47;98679.34;5239994;27;19972;-92
2021/08/05 06:04:15;;;;;;;;;;;;;;;23.98;60.48;98687.00;5240190;27;20014;-90
2021/08/05 06:06:40;;;;;;;;;;;;;;;24.03;60.47;98693.50;5257428;27;22379;-92
2021/08/05 06:09:06;;;;;;;;;;;;;;;24.00;60.48;98704.44;5258076;27;20376;-91
2021/08/05 06:11:31;;;;;;;;;;;;;;;24.02;60.48;98713.09;5277869;27;19964;-92
2021/08/05 06:13:56;;;;;;;;;;;;;;;24.07;60.48;98704.63;5257912;27;19965;-91
2021/08/05 06:16:21;;;;;;;;;;;;;;;24.16;60.48;98693.06;5257930;27;19987;-91
2021/08/05 06:18:47;;;;;;;;;;;;;;;24.21;60.48;98681.94;5257979;27;19972;-91
2021/08/05 06:21:12;;;;;;;;;;;;;;;24.14;60.48;98661.31;5258282;27;20002;-90
2021/08/05 06:23:37;;;;;;;;;;;;;;;24.04;60.47;98630.53;5257687;27;19968;-91
2021/08/05 06:26:02;;;;;;;;;;;;;;;24.04;60.47;98619.88;5258081;27;20271;-91
2021/08/05 06:28:28;;;;;;;;;;;;;;;23.74;60.46;98616.81;5240106;27;20010;-91
2021/08/05 06:30:53;;;;;;;;;;;;;;;23.77;60.46;98632.41;5257796;27;20011;-92
2021/08/05 06:33:18;;;;;;;;;;;;;;;23.79;60.46;98624.28;5257763;27;19977;-92
2021/08/05 06:35:43;;;;;;;;;;;;;;;24.02;60.48;98611.25;5277335;27;20313;-92
2021/08/05 06:38:09;;;;;;;;;;;;;;;23.93;60.47;98610.41;5257687;27;20012;-91
2021/08/05 06:40:34;;;;;;;;;;;;;;;24.04;60.47;98606.59;5257625;27;19985;-92
2021/08/05 06:42:59;;;;;;;;;;;;;;;24.04;60.47;98598.63;5257771;27;19983;-92
2021/08/05 06:45:24;;;;;;;;;;;;;;;24.05;60.47;98587.81;5241171;27;19992;-92
2021/08/05 06:47:50;;;;;;;;;;;;;;;24.11;60.47;98581.00;5258351;27;19981;-92
2021/08/05 06:50:16;;;;;;;;;;;;;;;24.22;60.49;98563.94;5277876;27;20000;-91
2021/08/05 06:52:41;;;;;;;;;;;;;;;24.24;60.48;98551.28;5258161;27;20332;-91
2021/08/05 06:55:06;;;;;;;;;;;;;;;24.18;60.48;98558.94;5257899;27;20320;-92
2021/08/05 06:57:31;;;;;;;;;;;;;;;24.17;60.48;98570.56;5277712;27;19988;-92
2021/08/05 06:59:58;;;;;;;;;;;;;;;24.25;60.49;98568.91;5258058;27;19968;-92
2021/08/05 07:02:23;;;;;;;;;;;;;;;24.15;60.48;98567.25;5241504;27;20309;-93
2021/08/05 07:04:48;;;;;;;;;;;;;;;23.76;60.47;98560.84;5240390;27;19973;-91
2021/08/05 07:07:13;;;;;;;;;;;;;;;23.75;60.47;98560.00;5240175;27;20325;-91
2021/08/05 07:09:39;;;;;;;;;;;;;;;23.55;60.45;98559.41;5240379;27;19965;-91
2021/08/05 07:12:04;;;;;;;;;;;;;;;23.37;60.44;98552.50;5258463;27;20007;-92
2021/08/05 07:14:29;;;;;;;;;;;;;;;23.35;60.43;98559.81;5240260;27;19966;-92
2021/08/05 07:16:54;;;;;;;;;;;;;;;23.13;60.43;98551.41;5258172;27;19983;-92
2021/08/05 07:19:20;;;;;;;;;;;;;;;23.10;60.42;98554.38;5239816;27;19984;-91
2021/08/05 07:21:45;;;;;;;;;;;;;;;23.12;60.44;98556.88;5258694;27;19953;-92
2021/08/05 07:24:12;;;;;;;;;;;;;;;23.02;60.42;98564.97;5258029;27;19992;-92
2021/08/05 07:26:38;;;;;;;;;;;;;;;22.91;60.42;98562.53;5240947;27;19972;-92
2021/08/05 07:29:03;;;;;;;;;;;;;;;22.93;60.42;98560.56;5240606;27;19999;-92
2021/08/05 07:31:28;;;;;;;;;;;;;;;22.86;60.41;98556.88;5239973;27;23701;-92
2021/08/05 07:33:54;;;;;;;;;;;;;;;22.89;60.42;98549.44;5258618;27;20000;-92
2021/08/05 07:36:20;;;;;;;;;;;;;;;22.88;60.42;98539.81;5258925;27;20326;-92
2021/08/05 07:38:45;;;;;;;;;;;;;;;22.95;60.42;98530.25;5240290;27;19979;-91
2021/08/05 07:41:10;;;;;;;;;;;;;;;23.02;60.42;98516.34;5257993;27;19972;-93
2021/08/05 07:43:35;;;;;;;;;;;;;;;23.07;60.42;98516.69;5239875;27;19992;-92
2021/08/05 07:46:01;;;;;;;;;;;;;;;23.03;60.42;98510.88;5258071;27;19975;-92
2021/08/05 07:48:26;;;;;;;;;;;;;;;23.05;60.43;98510.72;5257708;27;19976;-92
2021/08/05 07:50:51;;;;;;;;;;;;;;;23.04;60.42;98498.44;5239536;27;19969;-92
2021/08/05 07:53:16;;;;;;;;;;;;;;;23.23;60.43;98503.50;5258015;27;19969;-92
2021/08/05 07:55:42;;;;;;;;;;;;;;;23.32;60.43;98507.84;5240113;27;20044;-92
2021/08/05 07:58:07;;;;;;;;;;;;;;;23.47;60.45;98508.91;5270466;27;19966;-92
2021/08/05 08:00:35;;;;;;;;;;;;;;;23.52;60.45;98508.44;5261414;27;19980;-92
2021/08/05 08:03:00;;;;;;;;;;;;;;;23.53;60.45;98510.94;5277770;27;19972;-90
2021/08/05 08:05:25;;;;;;;;;;;;;;;23.54;60.45;98523.22;5277609;27;20312;-89
2021/08/05 08:07:51;;;;;;;;;;;;;;;23.58;60.44;98539.69;5257472;27;20344;-91
2021/08/05 08:10:16;;;;;;;;;;;;;;;23.46;60.44;98554.22;5257048;27;19990;-90
2021/08/05 08:12:41;;;;;;;;;;;;;;;23.17;60.43;98570.50;5277798;27;19987;-89
2021/08/05 08:15:06;;;;;;;;;;;;;;;22.81;60.42;98572.41;5262556;27;19983;-90
2021/08/05 08:17:32;;;;;;;;;;;;;;;22.61;60.40;98604.41;5271503;27;19975;-90
2021/08/05 08:19:57;;;;;;;;;;;;;;;22.22;60.38;98641.00;5270831;27;19980;-90
2021/08/05 08:22:22;;;;;;;;;;;;;;;21.86;60.36;98692.22;5264575;27;19985;-91
2021/08/05 08:24:47;;;;;;;;;;;;;;;21.49;60.35;98724.81;5262639;27;20297;-92
2021/08/05 08:27:13;;;;;;;;;;;;;;;21.49;60.34;98722.16;5243916;27;19988;-90
2021/08/05 08:29:38;;;;;;;;;;;;;;;21.48;60.33;98715.19;5257043;27;25100;-91
2021/08/05 08:32:03;;;;;;;;;;;;;;;21.25;60.34;98685.56;5238784;27;20431;-89
2021/08/05 08:34:28;;;;;;;;;;;;;;;21.31;60.33;98681.53;5257310;27;19973;-89
2021/08/05 08:36:55;;;;;;;;;;;;;;;21.42;60.34;98674.25;5276115;27;22204;-89
2021/08/05 08:39:22;;;;;;;;;;;;;;;21.61;60.34;98680.47;5257355;27;20262;-89
2021/08/05 08:41:47;;;;;;;;;;;;;;;21.53;60.34;98667.97;5239686;27;19983;-89
2021/08/05 08:44:14;;;;;;;;;;;;;;;21.61;60.34;98662.78;5256471;27;21751;-89
2021/08/05 08:46:39;;;;;;;;;;;;;;;21.52;60.34;98658.31;5257476;27;19969;-89
2021/08/05 08:49:05;;;;;;;;;;;;;;;21.47;60.34;98659.75;5257260;27;20003;-89
2021/08/05 08:51:31;;;;;;;;;;;;;;;21.60;60.35;98657.63;5257278;27;19984;-89
2021/08/05 08:53:56;;;;;;;;;;;;;;;21.74;60.36;98667.72;5257129;27;20003;-89
2021/08/05 08:56:22;;;;;;;;;;;;;;;21.84;60.36;98665.03;5256337;27;25456;-89
2021/08/05 08:58:47;;;;;;;;;;;;;;;21.76;60.35;98665.75;5257163;27;20298;-89
2021/08/05 09:01:13;;;;;;;;;;;;;;;22.05;60.37;98660.37;5257075;27;20354;-89
2021/08/05 09:03:38;;;;;;;;;;;;;;;21.97;60.37;98660.22;5268311;27;24490;-89
2021/08/05 09:06:03;;;;;;;;;;;;;;;22.07;60.37;98655.75;5256927;27;20017;-90
2021/08/05 09:08:28;;;;;;;;;;;;;;;22.21;60.38;98647.28;5256916;27;19969;-90
2021/08/05 09:10:54;;;;;;;;;;;;;;;22.22;60.38;98635.69;5276655;27;20004;-88
2021/08/05 09:13:19;;;;;;;;;;;;;;;22.50;60.40;98628.53;5276346;27;19980;-90
2021/08/05 09:15:45;;;;;;;;;;;;;;;22.52;60.39;98617.78;5276222;27;20281;-90
2021/08/05 09:18:30;;;;;;;;;;;;;;;22.60;60.40;98599.28;5276662;27;20268;-89
2021/08/05 09:21:14;;;;;;;;;;;;;;;22.69;60.40;98566.50;5238752;27;20400;-90
2021/08/05 09:23:45;;;;;;;;;;;;;;;22.84;60.41;98551.72;5277804;27;19975;-90
2021/08/05 09:26:34;;;;;;;;;;;;;;;22.95;60.41;98532.91;5278014;27;19981;-90
2021/08/05 09:29:00;;;;;;;;;;;;;;;22.88;60.41;98510.62;5249942;27;19980;-90
2021/08/05 09:31:25;;;;;;;;;;;;;;;22.97;60.42;98498.25;5258299;27;19987;-90
2021/08/05 09:33:50;;;;;;;;;;;;;;;;;;5276731;27;20015;-90
2021/08/05 09:36:25;;;;;;;;;;;;;;;23.05;60.42;98489.50;5278060;27;19980;-90
2021/08/05 09:38:50;;;;;;;;;;;;;;;23.23;60.43;98483.09;5240386;27;19969;-90
2021/08/05 09:41:15;;;;;;;;;;;;;;;23.30;60.43;98471.84;5257534;27;26930;-90
2021/08/05 09:43:40;;;;;;;;;;;;;;;23.40;60.43;98465.38;5257853;27;24056;-89
2021/08/05 09:46:06;;;;;;;;;;;;;;;23.55;60.44;98460.28;5258264;27;19968;-90
2021/08/05 09:48:31;;;;;;;;;;;;;;;23.67;60.44;98450.25;5257981;27;19987;-90
2021/08/05 09:51:03;;;;;;;;;;;;;;;23.84;60.46;98436.78;5258135;27;19968;-91
2021/08/05 09:53:29;;;;;;;;;;;;;;;24.00;60.47;98428.00;5258352;27;19972;-90
2021/08/05 09:56:06;;;;;;;;;;;;;;;24.12;60.47;98413.34;5239414;27;29778;-90
2021/08/05 09:58:32;;;;;;;;;;;;;;;24.16;60.47;98390.78;5278292;27;19966;-91
2021/08/05 10:00:57;;;;;;;;;;;;;;;24.35;60.48;98365.66;5277614;27;20295;-90
2021/08/05 10:03:30;;;;;;;;;;;;;;;24.31;60.48;98339.56;5240482;27;20274;-91
2021/08/05 10:05:59;;;;;;;;;;;;;;;24.32;60.48;98314.63;5258542;27;20373;-90
2021/08/05 10:08:34;;;;;;;;;;;;;;;24.17;60.47;98285.25;5266085;27;19947;-91
2021/08/05 10:10:59;;;;;;;;;;;;;;;24.24;60.48;98272.94;5240423;27;19976;-92
2021/08/05 10:13:28;;;;;;;;;;;;;;;24.08;60.48;98267.66;5258125;27;19976;-91
2021/08/05 10:15:53;;;;;;;;;;;;;;;23.76;60.46;98306.59;5240332;27;19964;-91
2021/08/05 10:18:18;;;;;;;;;;;;;;;23.62;60.45;98367.53;5240583;27;20278;-91
2021/08/05 10:20:44;;;;;;;;;;;;;;;23.68;60.45;98428.81;5277409;27;22147;-91
2021/08/05 10:23:09;;;;;;;;;;;;;;;23.77;60.46;98453.56;5277512;27;20151;-91
2021/08/05 10:25:34;;;;;;;;;;;;;;;23.82;60.45;98478.63;5259254;27;19990;-92
2021/08/05 10:28:01;;;;;;;;;;;;;;;23.84;60.45;98473.16;5258282;27;23015;-92
2021/08/05 10:30:26;;;;;;;;;;;;;;;23.84;60.46;98465.19;5259203;27;19980;-91
2021/08/05 10:32:52;;;;;;;;;;;;;;;23.99;60.47;98476.84;5240226;27;20334;-91
2021/08/05 10:35:17;;;;;;;;;;;;;;;23.89;60.46;98490.25;5240744;27;19964;-91
2021/08/05 10:37:42;;;;;;;;;;;;;;;23.82;60.45;98512.34;5259178;27;20010;-91
2021/08/05 10:40:08;;;;;;;;;;;;;;;24.03;60.46;98523.34;5259282;27;19984;-91
2021/08/05 10:42:34;;;;;;;;;;;;;;;24.06;60.46;98538.97;5258335;27;19979;-91
2021/08/05 10:44:59;;;;;;;;;;;;;;;24.07;60.48;98539.81;5259706;27;20223;-91
2021/08/05 10:47:25;;;;;;;;;;;;;;;24.13;60.47;98528.50;5280016;27;19988;-91
2021/08/05 10:49:51;;;;;;;;;;;;;;;24.17;60.47;98521.87;5259121;27;19964;-91
2021/08/05 10:52:47;;;;;;;;;;;;;;;24.35;60.48;98492.47;5258365;27;20070;-91
2021/08/05 10:55:16;;;;;;;;;;;;;;;24.39;60.49;98475.22;5266111;27;19975;-91
2021/08/05 10:57:41;;;;;;;;;;;;;;;24.35;60.48;98468.53;5299694;27;19968;-91
2021/08/05 11:00:11;;;;;;;;;;;;;;;24.51;60.48;98471.19;5261545;27;20340;-91
2021/08/05 11:02:46;;;;;;;;;;;;;;;24.43;60.49;98471.22;5279679;27;20380;-91
2021/08/05 11:05:12;;;;;;;;;;;;;;;24.59;60.49;98473.81;5299359;27;20010;-91
2021/08/05 11:07:38;;;;;;;;;;;;;;;24.64;60.50;98468.03;5279584;27;19964;-91
2021/08/05 11:10:16;;;;;;;;;;;;;;;24.59;60.50;98452.53;5279294;27;20289;-91
2021/08/05 11:12:41;;;;;;;;;;;;;;;24.99;60.51;98456.97;5279414;27;19971;-91
2021/08/05 11:15:22;;;;;;;;;;;;;;;25.02;60.52;98453.13;5299192;27;20013;-91
2021/08/05 11:18:09;;;;;;;;;;;;;;;25.06;60.51;98467.75;5299393;27;19961;-91
2021/08/05 11:20:42;;;;;;;;;;;;;;;25.12;60.52;98471.56;5279828;27;20332;-91
2021/08/05 11:23:07;;;;;;;;;;;;;;;24.98;60.51;98473.06;5281211;27;19972;-91
2021/08/05 11:25:53;;;;;;;;;;;;;;;25.15;60.52;98468.56;5301117;27;19978;-91
2021/08/05 11:28:21;;;;;;;;;;;;;;;25.26;60.53;98477.00;5301169;27;19960;-92
2021/08/05 11:30:54;;;;;;;;;;;;;;;25.26;60.53;98484.97;5281673;27;19945;-92
2021/08/05 11:33:48;;;;;;;;;;;;;;;25.23;60.54;98480.00;5305916;27;19948;-91
2021/08/05 11:36:15;;;;;;;;;;;;;;;25.26;60.53;98479.66;5277874;27;19941;-92
2021/08/05 11:38:59;;;;;;;;;;;;;;;25.34;60.54;98463.66;5292468;27;19956;-91
2021/08/05 11:41:39;;;;;;;;;;;;;;;25.41;60.54;98466.44;5286998;27;19972;-91
2021/08/05 11:44:31;;;;;;;;;;;;;;;25.48;60.55;98471.91;5280335;27;20018;-92
2021/08/05 11:47:06;;;;;;;;;;;;;;;25.58;60.55;98468.03;5254306;27;19972;-91
2021/08/05 11:49:37;;;;;;;;;;;;;;;25.52;60.54;98458.03;5279868;27;20025;-92
2021/08/05 11:52:06;;;;;;;;;;;;;;;25.45;60.53;98448.28;5299647;27;19976;-91
2021/08/05 11:54:31;;;;;;;;;;;;;;;25.45;60.54;98448.28;5261756;27;20025;-92
2021/08/05 11:57:06;;;;;;;;;;;;;;;25.56;60.54;98443.38;5279489;27;19968;-92
2021/08/05 11:59:38;;;;;;;;;;;;;;;25.65;60.56;98444.16;5279613;27;19960;-92
2021/08/05 12:02:10;;;;;;;;;;;;;;;25.45;60.54;98437.63;5279437;27;20339;-92
2021/08/05 12:04:36;;;;;;;;;;;;;;;25.53;60.54;98430.37;5261326;27;20027;-92
2021/08/05 12:07:14;;;;;;;;;;;;;;;25.65;60.55;98431.66;5279348;27;19979;-90
2021/08/05 12:09:39;;;;;;;;;;;;;;;25.60;60.55;98425.22;5261059;27;20474;-90
2021/08/05 12:12:04;;;;;;;;;;;;;;;25.57;60.54;98418.41;5299193;27;20058;-90
2021/08/05 12:14:30;;;;;;;;;;;;;;;25.57;60.55;98422.91;5260920;27;19998;-91
2021/08/05 12:16:55;;;;;;;;;;;;;;;25.62;60.56;98424.03;5298447;27;19964;-90
2021/08/05 12:19:20;;;;;;;;;;;;;;;25.61;60.54;98424.19;5278975;27;19976;-90
2021/08/05 12:21:48;;;;;;;;;;;;;;;25.49;60.54;98430.91;5260338;27;19972;-90
2021/08/05 12:24:14;;;;;;;;;;;;;;;25.48;60.54;98437.25;5298966;27;20318;-91
2021/08/05 12:26:39;;;;;;;;;;;;;;;25.38;60.53;98435.66;5279151;27;19968;-90
2021/08/05 12:29:11;;;;;;;;;;;;;;;25.33;60.54;98423.87;5279045;27;19980;-90
2021/08/05 12:31:36;;;;;;;;;;;;;;;25.26;60.53;98414.91;5298960;27;19991;-90
2021/08/05 12:34:01;;;;;;;;;;;;;;;25.20;60.53;98411.09;5278916;27;20245;-90
2021/08/05 12:36:26;;;;;;;;;;;;;;;24.92;60.51;98423.19;5297958;27;27483;-91
2021/08/05 12:38:56;;;;;;;;;;;;;;;24.60;60.49;98424.09;5299033;27;19967;-90
2021/08/05 12:41:39;;;;;;;;;;;;;;;24.56;60.49;98418.31;5298644;27;19988;-90
2021/08/05 12:44:06;;;;;;;;;;;;;;;24.36;60.48;98417.84;5278925;27;20017;-90
2021/08/05 12:46:32;;;;;;;;;;;;;;;24.26;60.48;98417.16;5298853;27;19969;-90